Time;durP1;ratioP1;P1;durP2;ratioP2;P2;SDS_P1;SDS_P2;PMS_P1;PMS_P2;Temp;Humidity;BMP_temperature;BMP_pressure;BME280_temperature;BME280_humidity;BME280_pressure;Samples;Min_cycle;Max_cycle;Signal;HPM_P1;HPM_P2
2023/03/26 00:01:07;;;;;;;5.30;2.10;;;7.70;99.90;;;;;;5093534;28;20472;-81
2023/03/26 00:03:34;;;;;;;10.80;2.30;;;8.10;99.90;;;;;;5093427;28;20044;-80
2023/03/26 00:06:03;;;;;;;8.45;2.20;;;7.70;99.90;;;;;;5093421;28;20044;-80
2023/03/26 00:08:28;;;;;;;5.07;1.77;;;8.10;99.90;;;;;;5092412;28;20101;-80
2023/03/26 00:10:54;;;;;;;11.30;2.30;;;7.60;99.90;;;;;;5092275;28;20043;-80
2023/03/26 00:13:19;;;;;;;8.05;2.10;;;7.60;99.90;;;;;;5093406;28;20041;-79
2023/03/26 00:15:45;;;;;;;7.63;2.25;;;7.50;99.90;;;;;;5093296;28;20548;-81
2023/03/26 00:18:11;;;;;;;10.27;2.17;;;7.50;99.90;;;;;;5092094;28;20040;-82
2023/03/26 00:20:37;;;;;;;9.60;2.00;;;7.40;99.90;;;;;;5076137;28;20094;-79
2023/03/26 00:23:03;;;;;;;9.93;2.30;;;7.40;99.90;;;;;;5093358;28;20040;-80
2023/03/26 00:25:28;;;;;;;9.15;2.20;;;7.40;99.90;;;;;;5092913;28;20044;-80
2023/03/26 00:27:54;;;;;;;9.20;2.58;;;7.40;99.90;;;;;;5097033;28;20043;-79
2023/03/26 00:30:20;;;;;;;11.00;2.30;;;7.50;99.90;;;;;;5097395;28;20472;-79
2023/03/26 00:32:45;;;;;;;7.00;1.90;;;7.40;99.90;;;;;;5096922;28;20036;-81
2023/03/26 00:35:12;;;;;;;7.05;1.80;;;7.40;99.90;;;;;;5097158;28;20044;-79
2023/03/26 00:37:41;;;;;;;8.88;3.17;;;7.50;99.90;;;;;;5096938;28;20127;-79
2023/03/26 00:40:09;;;;;;;10.75;2.30;;;7.50;99.90;;;;;;5095955;28;20533;-79
2023/03/26 00:42:36;;;;;;;5.15;1.77;;;7.50;99.90;;;;;;5095920;28;20399;-80
2023/03/26 00:45:03;;;;;;;;;;;7.50;99.90;;;;;;5097429;28;20146;-81
2023/03/26 00:47:29;;;;;;;8.25;2.78;;;7.50;99.90;;;;;;5096501;28;20387;-81
2023/03/26 00:49:56;;;;;;;5.25;1.92;;;7.50;99.90;;;;;;5097351;28;20123;-81
2023/03/26 00:52:22;;;;;;;6.38;1.98;;;7.50;99.90;;;;;;5096605;28;20040;-80
2023/03/26 00:54:50;;;;;;;7.03;2.07;;;7.90;99.90;;;;;;5096711;28;20048;-81
2023/03/26 00:57:19;;;;;;;7.13;2.00;;;7.50;99.90;;;;;;5095424;28;20078;-79
2023/03/26 00:59:45;;;;;;;7.55;2.20;;;7.50;99.90;;;;;;5096636;28;20127;-79
2023/03/26 01:02:15;;;;;;;9.43;2.20;;;7.50;99.90;;;;;;5096465;28;20108;-81
2023/03/26 01:04:45;;;;;;;8.90;2.17;;;7.70;99.90;;;;;;5096558;28;20059;-80
2023/03/26 01:07:15;;;;;;;7.13;2.40;;;7.40;99.90;;;;;;5095681;28;20145;-79
2023/03/26 01:09:43;;;;;;;7.22;1.83;;;7.30;99.90;;;;;;5095246;28;20181;-80
2023/03/26 01:12:17;;;;;;;21.42;2.90;;;7.90;99.90;;;;;;5096082;28;20044;-79
2023/03/26 01:14:44;;;;;;;7.43;2.00;;;7.20;99.90;;;;;;5095172;28;20040;-79
2023/03/26 01:17:11;;;;;;;;;;;7.30;99.90;;;;;;5097109;28;20043;-80
2023/03/26 01:19:56;;;;;;;6.35;2.05;;;7.10;99.90;;;;;;5095268;28;19927;-81
2023/03/26 01:22:26;;;;;;;7.93;1.63;;;7.10;99.90;;;;;;5096122;28;20502;-81
2023/03/26 01:24:54;;;;;;;11.25;2.30;;;7.00;99.90;;;;;;5096045;28;20549;-81
2023/03/26 01:27:39;;;;;;;8.70;1.92;;;7.00;99.90;;;;;;5095771;28;20043;-80
2023/03/26 01:30:26;;;;;;;9.18;2.50;;;7.00;99.90;;;;;;5095719;28;20052;-80
2023/03/26 01:32:59;;;;;;;4.22;1.95;;;6.90;99.90;;;;;;5096144;28;20127;-79
2023/03/26 01:35:40;;;;;;;5.50;2.00;;;6.90;99.90;;;;;;5095994;28;20083;-80
2023/03/26 01:38:21;;;;;;;7.82;2.45;;;6.80;99.90;;;;;;5095670;28;20040;-80
2023/03/26 01:40:55;;;;;;;5.20;1.85;;;6.70;99.90;;;;;;5095846;28;20491;-80
2023/03/26 01:43:21;;;;;;;6.00;1.95;;;6.70;99.90;;;;;;5095658;28;20051;-82
2023/03/26 01:45:49;;;;;;;5.10;2.08;;;6.60;99.90;;;;;;5095714;28;20127;-79
2023/03/26 01:48:14;;;;;;;11.93;2.28;;;6.60;99.90;;;;;;5095411;28;20447;-80
2023/03/26 01:50:40;;;;;;;9.07;2.35;;;6.50;99.90;;;;;;5095991;28;20079;-79
2023/03/26 01:53:08;;;;;;;9.27;2.08;;;6.50;99.90;;;;;;5094514;28;20043;-79
2023/03/26 01:56:00;;;;;;;6.38;2.25;;;6.40;99.90;;;;;;5095614;28;20039;-79
2023/03/26 01:58:47;;;;;;;8.43;2.65;;;6.90;99.90;;;;;;5094166;28;20522;-81
2023/03/26 02:01:35;;;;;;;6.72;2.35;;;6.30;99.90;;;;;;5095393;28;20081;-79
2023/03/26 02:04:23;;;;;;;6.28;2.00;;;6.40;99.90;;;;;;5094179;28;20032;-80
2023/03/26 02:07:05;;;;;;;;;;;6.50;99.90;;;;;;5094798;28;20052;-79
2023/03/26 02:09:39;;;;;;;7.35;2.05;;;7.10;99.90;;;;;;5095661;28;20296;-80
2023/03/26 02:12:06;;;;;;;6.30;2.00;;;6.80;99.90;;;;;;5095184;28;20476;-79
2023/03/26 02:14:32;;;;;;;;;;;6.30;99.90;;;;;;5095669;28;20451;-79
2023/03/26 02:16:59;;;;;;;7.43;2.15;;;6.90;99.90;;;;;;5095072;28;19959;-79
2023/03/26 02:19:25;;;;;;;7.25;2.40;;;6.40;99.90;;;;;;5093780;28;20041;-80
2023/03/26 02:21:50;;;;;;;8.57;2.00;;;6.50;99.90;;;;;;5111151;28;20048;-80
2023/03/26 02:24:18;;;;;;;7.93;2.10;;;6.50;99.90;;;;;;5110931;28;20063;-79
2023/03/26 02:26:44;;;;;;;4.43;1.80;;;6.50;99.90;;;;;;5094959;28;20056;-79
2023/03/26 02:29:12;;;;;;;8.80;2.40;;;6.60;99.90;;;;;;5095027;28;20071;-79
2023/03/26 02:31:38;;;;;;;6.20;2.00;;;6.60;99.90;;;;;;5094749;28;20106;-81
2023/03/26 02:34:03;;;;;;;6.05;2.00;;;7.40;99.90;;;;;;5094614;28;20487;-80
2023/03/26 02:36:29;;;;;;;8.90;2.30;;;6.70;99.90;;;;;;5094478;28;20087;-80
2023/03/26 02:38:59;;;;;;;5.97;2.03;;;6.70;99.90;;;;;;5093481;28;20044;-80
2023/03/26 02:41:24;;;;;;;3.83;2.20;;;6.70;99.90;;;;;;5093658;28;20051;-80
2023/03/26 02:43:50;;;;;;;6.43;2.03;;;6.80;99.90;;;;;;5110289;28;20048;-80
2023/03/26 02:46:16;;;;;;;6.32;2.53;;;6.80;99.90;;;;;;5094676;28;20036;-80
2023/03/26 02:48:42;;;;;;;5.53;2.33;;;6.90;99.90;;;;;;5093801;28;20496;-80
2023/03/26 02:51:08;;;;;;;5.72;2.10;;;6.80;99.90;;;;;;5094475;28;20055;-80
2023/03/26 02:53:36;;;;;;;4.28;2.00;;;6.90;99.90;;;;;;5110078;28;20040;-79
2023/03/26 02:56:02;;;;;;;8.82;2.15;;;6.90;99.90;;;;;;5094087;28;20503;-80
2023/03/26 02:58:28;;;;;;;7.28;1.95;;;6.90;99.90;;;;;;5094200;28;20044;-80
2023/03/26 03:00:55;;;;;;;7.90;2.58;;;6.90;99.90;;;;;;5094270;28;20495;-82
2023/03/26 03:03:25;;;;;;;8.85;2.03;;;6.90;99.90;;;;;;5093905;28;20492;-81
2023/03/26 03:05:54;;;;;;;5.93;2.20;;;6.90;99.90;;;;;;5093385;28;20040;-80
2023/03/26 03:08:22;;;;;;;6.90;1.92;;;6.90;99.90;;;;;;5094189;28;20107;-80
2023/03/26 03:10:56;;;;;;;2.67;1.77;;;6.90;99.90;;;;;;5094324;28;20502;-80
2023/03/26 03:13:22;;;;;;;9.05;2.10;;;6.90;99.90;;;;;;5093889;28;20091;-81
2023/03/26 03:15:47;;;;;;;6.05;2.10;;;6.90;99.90;;;;;;5093894;28;20101;-80
2023/03/26 03:18:13;;;;;;;3.42;1.70;;;6.90;99.90;;;;;;5094029;28;20044;-81
2023/03/26 03:20:38;;;;;;;7.22;2.25;;;6.90;99.90;;;;;;5094068;28;20058;-80
2023/03/26 03:23:04;;;;;;;5.53;2.08;;;6.90;99.90;;;;;;5075866;28;20050;-79
2023/03/26 03:25:31;;;;;;;5.97;2.20;;;6.80;99.90;;;;;;5093939;28;20380;-80
2023/03/26 03:27:57;;;;;;;6.03;2.00;;;6.90;99.90;;;;;;5093762;28;20048;-80
2023/03/26 03:30:24;;;;;;;9.13;2.72;;;6.80;99.90;;;;;;5093827;28;20086;-80
2023/03/26 03:32:49;;;;;;;9.13;2.40;;;6.80;99.90;;;;;;5094017;28;20063;-81
2023/03/26 03:35:15;;;;;;;5.35;2.25;;;6.80;99.90;;;;;;5094211;28;20484;-81
2023/03/26 03:37:41;;;;;;;7.40;2.35;;;6.70;99.90;;;;;;5093753;28;20554;-81
2023/03/26 03:40:09;;;;;;;5.55;1.90;;;6.70;99.90;;;;;;5093750;28;20040;-81
2023/03/26 03:42:36;;;;;;;10.07;2.28;;;6.70;99.90;;;;;;5093670;28;20044;-80
2023/03/26 03:45:03;;;;;;;5.55;2.20;;;6.60;99.90;;;;;;5093362;28;20048;-81
2023/03/26 03:47:29;;;;;;;8.45;2.63;;;6.50;99.90;;;;;;5093581;28;20043;-81
2023/03/26 03:49:55;;;;;;;7.28;2.05;;;6.40;99.90;;;;;;5094375;28;20472;-80
2023/03/26 03:52:21;;;;;;;10.18;2.45;;;6.40;99.90;;;;;;5093906;28;20047;-80
2023/03/26 03:54:47;;;;;;;7.75;2.42;;;6.30;99.90;;;;;;5093617;28;20055;-81
2023/03/26 03:57:14;;;;;;;5.55;2.17;;;7.10;99.90;;;;;;5093543;28;20087;-80
2023/03/26 03:59:40;;;;;;;4.40;1.95;;;6.20;99.90;;;;;;5093529;28;20044;-81
2023/03/26 04:02:06;;;;;;;9.50;2.40;;;6.00;99.90;;;;;;5096842;28;20116;-82
2023/03/26 04:04:31;;;;;;;7.40;2.20;;;6.00;99.90;;;;;;5096511;28;20051;-80
2023/03/26 04:06:57;;;;;;;7.90;2.00;;;5.90;99.90;;;;;;5097518;28;20052;-81
2023/03/26 04:09:23;;;;;;;5.50;2.25;;;5.80;99.90;;;;;;5096637;28;20043;-80
2023/03/26 04:11:49;;;;;;;4.20;1.92;;;5.80;99.90;;;;;;5098006;28;20051;-80
2023/03/26 04:14:15;;;;;;;5.22;2.15;;;5.70;99.90;;;;;;5097464;28;20084;-80
2023/03/26 04:16:40;;;;;;;5.65;2.00;;;5.60;99.90;;;;;;5097465;28;20047;-82
2023/03/26 04:19:07;;;;;;;5.53;2.00;;;5.60;99.90;;;;;;5097059;28;20044;-80
2023/03/26 04:21:36;;;;;;;4.90;2.03;;;5.50;99.90;;;;;;5097369;28;20052;-80
2023/03/26 04:24:03;;;;;;;7.47;2.58;;;5.50;99.90;;;;;;5097338;28;20127;-81
2023/03/26 04:26:29;;;;;;;;;;;5.40;99.90;;;;;;5097823;28;20048;-81
2023/03/26 04:28:59;;;;;;;8.57;2.45;;;5.40;99.90;;;;;;5097078;28;19927;-81
2023/03/26 04:31:29;;;;;;;7.82;2.60;;;5.40;99.90;;;;;;5097180;28;20141;-81
2023/03/26 04:34:22;;;;;;;10.90;2.50;;;5.40;99.90;;;;;;5095929;28;20083;-79
2023/03/26 04:36:48;;;;;;;6.78;2.20;;;5.40;99.90;;;;;;5090834;28;20052;-82
2023/03/26 04:39:15;;;;;;;6.53;2.08;;;5.40;99.90;;;;;;5096693;28;20044;-79
2023/03/26 04:41:43;;;;;;;7.90;2.45;;;5.40;99.90;;;;;;5096994;28;20127;-80
2023/03/26 04:44:10;;;;;;;7.93;2.80;;;5.40;99.90;;;;;;5095728;28;20039;-80
2023/03/26 04:46:36;;;;;;;4.38;2.05;;;5.40;99.90;;;;;;5079238;28;20040;-80
2023/03/26 04:49:01;;;;;;;4.63;2.28;;;5.70;99.90;;;;;;5096801;28;20052;-80
2023/03/26 04:51:36;;;;;;;9.02;2.63;;;5.40;99.90;;;;;;5096884;28;20131;-81
2023/03/26 04:54:04;;;;;;;6.53;2.00;;;5.50;99.90;;;;;;5095679;28;20441;-81
2023/03/26 04:56:55;;;;;;;7.68;2.42;;;5.50;99.90;;;;;;5095350;28;20407;-81
2023/03/26 04:59:35;;;;;;;6.82;2.63;;;5.50;99.90;;;;;;5096651;28;20118;-80
2023/03/26 05:02:04;;;;;;;6.78;2.47;;;5.50;99.90;;;;;;5096512;28;20044;-80
2023/03/26 05:04:32;;;;;;;7.93;2.85;;;5.50;99.90;;;;;;5096718;28;20136;-79
2023/03/26 05:06:58;;;;;;;6.50;2.40;;;5.50;99.90;;;;;;5096473;28;20052;-80
2023/03/26 05:09:25;;;;;;;10.55;3.03;;;5.60;99.90;;;;;;5095228;28;20074;-79
2023/03/26 05:11:50;;;;;;;5.72;2.67;;;5.60;99.90;;;;;;5095808;28;20522;-80
2023/03/26 05:14:17;;;;;;;8.88;2.65;;;5.70;99.90;;;;;;5095257;28;20083;-80
2023/03/26 05:16:45;;;;;;;6.28;2.92;;;5.60;99.90;;;;;;5095272;28;20415;-81
2023/03/26 05:19:11;;;;;;;5.45;2.40;;;5.70;99.90;;;;;;5095803;28;20055;-80
2023/03/26 05:21:37;;;;;;;5.93;2.60;;;5.70;99.90;;;;;;5096272;28;20044;-81
2023/03/26 05:24:04;;;;;;;10.18;2.80;;;5.70;99.90;;;;;;5078318;28;20131;-82
2023/03/26 05:26:30;;;;;;;7.90;2.92;;;5.70;99.90;;;;;;5096678;28;20048;-82
2023/03/26 05:28:56;;;;;;;7.10;2.65;;;5.70;99.90;;;;;;5096005;28;20043;-80
2023/03/26 05:31:22;;;;;;;11.02;3.20;;;5.70;99.90;;;;;;5094463;28;20472;-83
2023/03/26 05:33:48;;;;;;;11.32;2.88;;;5.80;99.90;;;;;;5094407;28;20032;-80
2023/03/26 05:36:14;;;;;;;4.68;2.40;;;5.80;99.90;;;;;;5093374;28;20039;-81
2023/03/26 05:38:41;;;;;;;9.18;2.67;;;5.80;99.90;;;;;;5093597;28;20105;-81
2023/03/26 05:41:08;;;;;;;;;;;5.90;99.90;;;;;;5094974;28;20067;-80
2023/03/26 05:43:34;;;;;;;10.75;3.30;;;5.90;99.90;;;;;;5093172;28;20011;-81
2023/03/26 05:45:59;;;;;;;4.90;2.20;;;6.00;99.90;;;;;;5094130;28;20158;-81
2023/03/26 05:48:25;;;;;;;6.57;2.80;;;6.00;99.90;;;;;;5094297;28;20048;-85
2023/03/26 05:50:54;;;;;;;8.10;2.70;;;6.60;99.90;;;;;;5076566;28;20047;-86
2023/03/26 05:53:21;;;;;;;9.60;3.10;;;6.00;99.90;;;;;;5093528;28;20040;-81
2023/03/26 05:55:57;;;;;;;13.15;4.30;;;6.00;99.90;;;;;;5095594;28;20048;-82
2023/03/26 05:58:27;;;;;;;8.73;2.95;;;6.10;99.90;;;;;;5096054;28;20043;-80
2023/03/26 06:01:04;;;;;;;10.15;3.13;;;6.10;99.90;;;;;;5095568;28;20569;-82
2023/03/26 06:03:40;;;;;;;7.10;2.83;;;6.20;99.90;;;;;;5095192;28;20063;-82
2023/03/26 06:06:08;;;;;;;7.65;3.03;;;6.20;99.90;;;;;;5095955;28;20048;-81
2023/03/26 06:08:33;;;;;;;8.43;3.92;;;6.20;99.90;;;;;;5095460;28;20040;-81
2023/03/26 06:11:01;;;;;;;11.50;3.15;;;6.20;99.90;;;;;;5096284;28;20050;-81
2023/03/26 06:13:27;;;;;;;7.40;3.08;;;6.30;99.90;;;;;;5097488;28;20519;-82
2023/03/26 06:15:53;;;;;;;9.32;3.63;;;6.30;99.90;;;;;;5093743;28;20079;-84
2023/03/26 06:18:19;;;;;;;5.55;2.97;;;6.30;99.90;;;;;;5093956;28;20392;-82
2023/03/26 06:20:45;;;;;;;10.68;3.95;;;6.40;99.90;;;;;;5095393;28;20048;-81
2023/03/26 06:23:11;;;;;;;7.80;3.40;;;6.50;99.90;;;;;;5092917;28;20051;-82
2023/03/26 06:25:37;;;;;;;8.10;3.20;;;6.40;99.90;;;;;;5095197;28;20048;-82
2023/03/26 06:28:03;;;;;;;5.70;2.80;;;7.10;99.90;;;;;;5095030;28;20501;-83
2023/03/26 06:30:29;;;;;;;15.03;3.67;;;6.50;99.90;;;;;;5093711;28;20503;-82
2023/03/26 06:32:55;;;;;;;7.82;3.45;;;6.50;99.90;;;;;;5094956;28;20040;-82
2023/03/26 06:35:20;;;;;;;10.35;3.65;;;6.50;99.90;;;;;;5094720;28;20123;-82
2023/03/26 06:37:46;;;;;;;8.68;3.40;;;6.50;99.90;;;;;;5094713;28;20048;-81
2023/03/26 06:40:12;;;;;;;7.05;3.78;;;6.50;99.90;;;;;;5094429;28;20044;-83
2023/03/26 06:42:38;;;;;;;7.00;2.80;;;6.60;99.90;;;;;;5093612;28;20080;-81
2023/03/26 06:45:04;;;;;;;10.40;3.20;;;7.10;99.90;;;;;;5094499;28;20075;-81
2023/03/26 06:47:30;;;;;;;6.57;3.30;;;6.60;99.90;;;;;;5094514;28;20052;-83
2023/03/26 06:49:55;;;;;;;20.77;4.32;;;6.70;99.90;;;;;;5093158;28;20126;-82
2023/03/26 06:52:21;;;;;;;9.23;3.10;;;6.60;99.90;;;;;;5094334;28;20081;-81
2023/03/26 06:54:46;;;;;;;11.38;3.45;;;6.70;99.90;;;;;;5094445;28;20036;-82
2023/03/26 06:57:12;;;;;;;9.23;3.45;;;6.70;99.90;;;;;;5094989;28;20506;-82
2023/03/26 06:59:37;;;;;;;10.13;3.20;;;6.70;99.90;;;;;;5094304;28;20044;-83
2023/03/26 07:02:03;;;;;;;11.77;4.07;;;6.70;99.90;;;;;;5093258;28;20127;-84
2023/03/26 07:04:29;;;;;;;12.88;3.47;;;6.70;99.90;;;;;;5093407;28;20179;-83
2023/03/26 07:06:55;;;;;;;8.02;2.92;;;6.80;99.90;;;;;;5076383;28;20043;-82
2023/03/26 07:09:20;;;;;;;13.93;3.08;;;6.80;99.90;;;;;;5094285;28;20051;-84
2023/03/26 07:11:46;;;;;;;10.32;2.95;;;6.90;99.90;;;;;;5076029;28;20040;-83
2023/03/26 07:14:12;;;;;;;11.57;3.50;;;7.10;99.90;;;;;;5093906;28;20094;-81
2023/03/26 07:16:37;;;;;;;14.30;3.78;;;7.70;99.90;;;;;;5093018;28;20097;-82
2023/03/26 07:19:03;;;;;;;9.25;3.45;;;7.00;99.90;;;;;;5093096;28;20396;-82
2023/03/26 07:21:29;;;;;;;15.70;3.97;;;7.30;99.90;;;;;;5093228;28;20039;-82
2023/03/26 07:23:55;;;;;;;8.85;2.65;;;7.00;99.90;;;;;;5093076;28;20396;-81
2023/03/26 07:26:46;;;;;;;13.57;3.30;;;7.10;99.90;;;;;;5093630;28;20044;-84
2023/03/26 07:29:29;;;;;;;14.18;3.03;;;7.10;99.90;;;;;;5076074;28;20492;-79
2023/03/26 07:32:14;;;;;;;12.57;2.97;;;7.20;99.90;;;;;;5092771;28;20056;-83
2023/03/26 07:34:55;;;;;;;10.23;2.97;;;7.20;99.90;;;;;;5093309;28;20036;-81
2023/03/26 07:37:45;;;;;;;13.25;3.15;;;7.30;99.90;;;;;;5093760;28;20438;-81
2023/03/26 07:40:30;;;;;;;15.75;2.83;;;7.40;99.90;;;;;;5093866;28;20048;-84
2023/03/26 07:42:59;;;;;;;16.90;3.72;;;7.50;99.90;;;;;;5093993;28;20051;-82
2023/03/26 07:45:38;;;;;;;16.83;2.97;;;7.70;99.90;;;;;;5092450;28;20480;-85
2023/03/26 07:48:16;;;;;;;23.02;4.10;;;7.70;99.90;;;;;;5093937;28;20393;-81
2023/03/26 07:50:42;;;;;;;14.95;3.00;;;7.80;99.90;;;;;;5093664;28;20449;-83
2023/03/26 07:53:08;;;;;;;13.93;2.97;;;7.80;99.90;;;;;;5092561;28;20088;-83
2023/03/26 07:56:00;;;;;;;17.52;3.13;;;7.80;99.90;;;;;;5092395;28;20047;-81
2023/03/26 07:58:45;;;;;;;9.57;2.90;;;7.90;99.90;;;;;;5093665;28;20438;-84
2023/03/26 08:01:13;;;;;;;12.95;2.78;;;8.00;99.90;;;;;;5093650;28;20055;-82
2023/03/26 08:03:40;;;;;;;10.10;2.90;;;7.90;99.90;;;;;;5093480;28;20130;-83
2023/03/26 08:06:23;;;;;;;21.60;3.45;;;8.20;99.90;;;;;;5093562;28;20059;-83
2023/03/26 08:09:15;;;;;;;16.70;3.00;;;7.80;99.90;;;;;;5093703;28;20051;-84
2023/03/26 08:11:46;;;;;;;9.35;2.50;;;7.80;99.90;;;;;;5092430;28;20051;-81
2023/03/26 08:14:26;;;;;;;12.02;2.80;;;7.80;99.90;;;;;;5093220;28;20044;-82
2023/03/26 08:17:07;;;;;;;16.05;3.15;;;7.80;99.90;;;;;;5093571;28;20044;-80
2023/03/26 08:19:43;;;;;;;16.08;2.67;;;7.70;99.90;;;;;;5094103;28;20132;-81
2023/03/26 08:22:27;;;;;;;13.65;2.40;;;7.70;99.90;;;;;;5093624;28;20051;-83
2023/03/26 08:25:26;;;;;;;19.70;3.47;;;7.60;99.90;;;;;;5093269;28;20047;-83
2023/03/26 08:28:03;;;;;;;;;;;7.60;99.90;;;;;;5023929;28;20059;-80
2023/03/26 08:30:30;;;;;;;12.93;3.55;;;7.60;99.90;;;;;;5093311;28;19920;-81
2023/03/26 08:32:58;;;;;;;14.75;3.63;;;7.60;99.90;;;;;;5092471;28;20188;-81
2023/03/26 08:35:25;;;;;;;20.40;3.10;;;7.60;99.90;;;;;;5093284;28;20444;-82
2023/03/26 08:37:52;;;;;;;12.77;2.55;;;7.70;99.90;;;;;;5075324;28;20083;-82
2023/03/26 08:40:43;;;;;;;19.90;3.47;;;7.60;99.90;;;;;;5092779;28;20419;-81
2023/03/26 08:43:51;;;;;;;17.80;3.05;;;7.70;99.90;;;;;;5075600;28;20048;-83
2023/03/26 08:46:35;;;;;;;9.15;2.53;;;7.80;99.90;;;;;;5075764;28;20075;-83
2023/03/26 08:49:46;;;;;;;10.82;2.30;;;7.90;99.90;;;;;;5095684;28;20048;-81
2023/03/26 08:52:48;;;;;;;15.75;2.63;;;7.80;99.90;;;;;;5079001;28;20054;-81
2023/03/26 08:56:01;;;;;;;15.02;2.33;;;7.90;99.90;;;;;;5095930;28;20074;-81
2023/03/26 08:58:27;;;;;;;14.18;3.03;;;8.00;99.90;;;;;;5024127;28;20584;-84
2023/03/26 09:01:26;;;;;;;14.85;2.58;;;8.10;99.90;;;;;;5096501;28;20044;-83
2023/03/26 09:04:20;;;;;;;10.88;2.20;;;8.10;99.90;;;;;;5096899;28;20127;-83
2023/03/26 09:07:21;;;;;;;17.80;3.08;;;8.20;99.90;;;;;;5095243;28;20518;-82
2023/03/26 09:10:09;;;;;;;10.10;3.00;;;8.40;99.90;;;;;;5078837;28;20058;-81
2023/03/26 09:13:08;;;;;;;14.85;2.13;;;8.50;99.90;;;;;;5096397;28;20090;-83
2023/03/26 09:15:46;;;;;;;13.93;3.03;;;8.50;99.90;;;;;;5078364;28;20083;-82
2023/03/26 09:18:41;;;;;;;7.85;2.10;;;8.40;99.90;;;;;;5095878;28;20044;-83
2023/03/26 09:21:30;;;;;;;14.23;2.58;;;8.50;99.90;;;;;;5096292;28;20052;-81
2023/03/26 09:24:18;;;;;;;13.13;2.40;;;8.50;99.90;;;;;;5096225;28;20044;-83
2023/03/26 09:26:58;;;;;;;12.93;2.08;;;8.40;99.90;;;;;;5096464;28;20048;-83
2023/03/26 09:29:49;;;;;;;13.18;2.75;;;8.40;99.90;;;;;;5096535;28;20044;-82
2023/03/26 09:32:41;;;;;;;15.43;2.28;;;8.50;99.90;;;;;;5095022;28;20059;-83
2023/03/26 09:35:53;;;;;;;12.15;2.42;;;8.50;99.90;;;;;;5095708;28;20044;-84
2023/03/26 09:38:42;;;;;;;14.50;2.40;;;8.40;99.90;;;;;;5086998;28;20060;-83
2023/03/26 09:41:21;;;;;;;8.77;2.30;;;8.40;99.90;;;;;;5075843;28;20047;-84
2023/03/26 09:44:11;;;;;;;12.63;3.42;;;8.40;99.90;;;;;;5074944;28;20139;-84
2023/03/26 09:47:20;;;;;;;20.40;3.63;;;8.40;99.90;;;;;;5090559;28;20048;-84
2023/03/26 09:50:24;;;;;;;12.75;2.55;;;8.30;99.90;;;;;;5073725;28;20487;-85
2023/03/26 09:53:26;;;;;;;15.70;2.20;;;8.40;99.90;;;;;;5073699;28;20135;-85
2023/03/26 09:56:02;;;;;;;15.35;2.70;;;8.50;99.90;;;;;;5074482;28;20381;-85
2023/03/26 09:58:51;;;;;;;14.82;2.60;;;9.00;99.90;;;;;;5073610;28;20135;-83
2023/03/26 10:02:03;;;;;;;14.23;3.00;;;8.60;99.90;;;;;;5090845;28;20049;-82
2023/03/26 10:04:59;;;;;;;12.85;2.25;;;8.70;99.90;;;;;;5041077;28;20048;-83
2023/03/26 10:07:49;;;;;;;16.45;3.28;;;8.90;99.90;;;;;;5057348;28;20094;-82
2023/03/26 10:10:49;;;;;;;17.13;3.00;;;8.80;99.90;;;;;;5074688;28;20485;-87
2023/03/26 10:13:17;;;;;;;8.90;2.58;;;8.80;99.90;;;;;;5057359;28;20082;-81
2023/03/26 10:15:57;;;;;;;17.55;2.63;;;8.90;99.90;;;;;;5090589;28;20105;-79
2023/03/26 10:18:54;;;;;;;8.73;2.78;;;9.00;99.90;;;;;;5074509;28;20492;-80
2023/03/26 10:21:45;;;;;;;11.60;2.55;;;9.00;99.90;;;;;;5073611;28;20114;-83
2023/03/26 10:24:23;;;;;;;15.38;2.95;;;9.10;99.90;;;;;;5073853;28;20055;-83
2023/03/26 10:27:27;;;;;;;10.98;2.88;;;9.00;99.90;;;;;;5077657;28;20066;-81
2023/03/26 10:30:26;;;;;;;10.63;2.75;;;9.10;99.90;;;;;;5073710;28;20045;-82
2023/03/26 10:33:21;;;;;;;9.60;2.80;;;9.10;99.90;;;;;;5074620;28;20053;-83
2023/03/26 10:35:52;;;;;;;8.88;1.98;;;9.10;99.90;;;;;;5074955;28;20061;-80
2023/03/26 10:38:39;;;;;;;8.80;2.30;;;9.10;99.90;;;;;;5074655;28;20052;-82
2023/03/26 10:41:23;;;;;;;13.18;3.15;;;9.10;99.90;;;;;;5074417;28;20044;-81
2023/03/26 10:44:22;;;;;;;11.40;2.35;;;9.20;99.90;;;;;;5074618;28;20366;-82
2023/03/26 10:47:10;;;;;;;7.07;2.53;;;9.20;99.90;;;;;;5073069;28;20041;-81
2023/03/26 10:50:03;;;;;;;10.90;2.90;;;9.40;99.90;;;;;;5073658;28;20418;-80
2023/03/26 10:52:57;;;;;;;8.60;2.38;;;9.40;99.90;;;;;;5074586;28;20044;-80
2023/03/26 10:55:33;;;;;;;11.02;2.55;;;9.50;99.90;;;;;;5073980;28;20041;-81
2023/03/26 10:58:05;;;;;;;11.73;2.00;;;9.30;99.90;;;;;;5073971;28;20040;-80
2023/03/26 11:00:40;;;;;;;7.63;1.98;;;9.40;99.90;;;;;;5090234;28;20095;-82
2023/03/26 11:03:24;;;;;;;8.45;2.53;;;10.10;99.90;;;;;;5074200;28;20041;-81
2023/03/26 11:06:24;;;;;;;10.73;2.25;;;9.40;99.90;;;;;;5073798;28;20512;-81
2023/03/26 11:08:58;;;;;;;9.38;2.17;;;9.50;99.90;;;;;;5073870;28;20127;-86
2023/03/26 11:11:44;;;;;;;10.65;2.25;;;9.50;99.90;;;;;;5074166;28;20051;-82
2023/03/26 11:14:13;;;;;;;9.02;2.42;;;9.50;99.90;;;;;;5072542;28;20044;-81
2023/03/26 11:17:04;;;;;;;12.20;2.00;;;9.40;99.90;;;;;;5072549;28;20048;-84
2023/03/26 11:19:47;;;;;;;10.00;2.15;;;9.50;99.90;;;;;;5073774;28;20052;-81
2023/03/26 11:22:31;;;;;;;7.70;2.58;;;9.50;99.90;;;;;;5074335;28;20427;-86
2023/03/26 11:25:22;;;;;;;7.28;1.80;;;9.40;99.90;;;;;;5073727;28;20097;-83
2023/03/26 11:28:10;;;;;;;14.68;2.22;;;9.40;99.90;;;;;;5073617;28;20071;-82
2023/03/26 11:30:43;;;;;;;11.18;1.98;;;9.50;99.90;;;;;;5073723;28;20091;-84
2023/03/26 11:33:15;;;;;;;9.27;2.15;;;9.40;99.90;;;;;;5073810;28;20434;-83
2023/03/26 11:35:49;;;;;;;7.00;1.92;;;9.60;99.90;;;;;;5073586;28;20135;-83
2023/03/26 11:38:22;;;;;;;7.18;2.22;;;9.60;99.90;;;;;;5073653;28;20040;-83
2023/03/26 11:40:51;;;;;;;7.82;1.80;;;9.60;99.90;;;;;;5072431;28;20036;-81
2023/03/26 11:43:25;;;;;;;8.55;2.38;;;9.90;99.90;;;;;;5073654;28;20046;-81
2023/03/26 11:45:52;;;;;;;10.77;2.20;;;10.50;99.90;;;;;;5073454;28;20132;-82
2023/03/26 11:48:43;;;;;;;10.95;1.88;;;9.60;99.90;;;;;;5073257;28;20129;-82
2023/03/26 11:51:17;;;;;;;10.90;2.75;;;9.60;99.90;;;;;;5072105;28;20048;-82
2023/03/26 11:53:45;;;;;;;12.73;2.00;;;9.40;99.90;;;;;;5072068;28;20083;-82
2023/03/26 11:56:36;;;;;;;11.43;2.38;;;9.40;99.90;;;;;;5072430;28;20036;-83
2023/03/26 11:59:11;;;;;;;10.10;1.95;;;9.40;99.90;;;;;;5071776;28;20501;-82
2023/03/26 12:01:49;;;;;;;12.80;2.40;;;9.50;99.90;;;;;;5073172;28;20060;-83
2023/03/26 12:04:39;;;;;;;5.45;1.83;;;9.40;99.90;;;;;;5073282;28;20048;-82
2023/03/26 12:07:16;;;;;;;8.88;2.28;;;9.60;99.90;;;;;;5072869;28;20057;-81
2023/03/26 12:09:51;;;;;;;10.48;3.22;;;9.50;99.90;;;;;;5073483;28;20102;-82
2023/03/26 12:12:17;;;;;;;10.05;2.13;;;9.50;99.90;;;;;;5073018;28;20551;-82
2023/03/26 12:14:43;;;;;;;16.02;2.90;;;9.50;99.90;;;;;;5071781;28;20531;-80
2023/03/26 12:17:24;;;;;;;7.38;1.75;;;9.80;99.90;;;;;;5072895;28;20049;-81
2023/03/26 12:19:49;;;;;;;10.80;2.47;;;9.90;99.90;;;;;;5073204;28;20040;-81
2023/03/26 12:22:36;;;;;;;14.82;2.15;;;9.90;99.90;;;;;;5075215;28;20044;-82
2023/03/26 12:25:20;;;;;;;10.20;2.30;;;9.90;99.90;;;;;;5077152;28;20435;-83
2023/03/26 12:27:54;;;;;;;8.82;2.45;;;9.90;99.90;;;;;;5075838;28;20049;-81
2023/03/26 12:30:24;;;;;;;8.55;2.22;;;10.30;99.90;;;;;;5076928;28;20040;-82
2023/03/26 12:32:52;;;;;;;9.75;2.45;;;9.80;99.90;;;;;;5075553;28;20041;-82
2023/03/26 12:35:25;;;;;;;10.18;2.55;;;10.50;99.90;;;;;;5076833;28;20052;-82
2023/03/26 12:37:52;;;;;;;6.80;2.28;;;9.70;99.90;;;;;;5076872;28;20037;-83
2023/03/26 12:40:35;;;;;;;9.20;2.25;;;10.20;99.90;;;;;;5076671;28;20510;-81
2023/03/26 12:43:24;;;;;;;6.95;2.08;;;9.60;99.90;;;;;;5076381;28;20036;-82
2023/03/26 12:45:55;;;;;;;9.30;1.77;;;9.60;99.90;;;;;;5076708;28;20041;-82
2023/03/26 12:48:24;;;;;;;6.43;1.92;;;9.60;99.90;;;;;;5076621;28;20052;-82
2023/03/26 12:50:59;;;;;;;7.43;1.90;;;9.80;99.90;;;;;;5077067;28;20091;-82
2023/03/26 12:53:27;;;;;;;11.00;2.25;;;9.60;99.90;;;;;;5076713;28;20048;-82
2023/03/26 12:56:18;;;;;;;8.02;2.63;;;9.60;99.90;;;;;;5076682;28;20127;-82
2023/03/26 12:59:02;;;;;;;8.82;1.92;;;9.60;99.90;;;;;;5070355;28;20127;-82
2023/03/26 13:01:34;;;;;;;8.93;2.53;;;9.70;99.90;;;;;;5076090;28;20498;-82
2023/03/26 13:04:12;;;;;;;8.88;2.92;;;9.70;99.90;;;;;;5076639;28;20043;-81
2023/03/26 13:07:00;;;;;;;12.10;2.60;;;9.80;99.90;;;;;;5076195;28;20492;-83
2023/03/26 13:09:44;;;;;;;10.63;2.15;;;9.70;99.90;;;;;;5075441;28;20094;-82
2023/03/26 13:12:25;;;;;;;12.35;2.72;;;9.70;99.90;;;;;;5076566;28;20051;-82
2023/03/26 13:15:19;;;;;;;5.97;1.60;;;9.60;99.90;;;;;;5076125;28;20381;-82
2023/03/26 13:17:50;;;;;;;10.23;2.15;;;9.50;99.90;;;;;;5074960;28;20037;-83
2023/03/26 13:20:47;;;;;;;12.60;2.00;;;9.40;99.90;;;;;;5075860;28;20055;-82
2023/03/26 13:23:21;;;;;;;7.53;2.25;;;9.30;99.90;;;;;;5046461;28;20492;-82
2023/03/26 13:26:03;;;;;;;10.02;2.10;;;9.30;99.90;;;;;;5075909;28;20055;-82
2023/03/26 13:28:44;;;;;;;6.72;1.85;;;9.30;99.90;;;;;;5058126;28;20396;-83
2023/03/26 13:31:30;;;;;;;7.72;1.92;;;9.30;99.90;;;;;;5076236;28;20373;-82
2023/03/26 13:34:27;;;;;;;9.50;2.70;;;9.40;99.90;;;;;;5075819;28;20137;-82